createdAt,value
2018-02-03T00:00:35.305Z,26.33
2018-02-03T00:01:37.789Z,23.25
2018-02-03T00:02:40.273Z,27.25
2018-02-03T00:03:42.840Z,27.50
2018-02-03T00:04:46.065Z,27.08
2018-02-03T00:05:48.565Z,26.45
2018-02-03T00:06:51.042Z,26.85
2018-02-03T00:07:53.525Z,29.67
2018-02-03T00:08:55.985Z,27.40
2018-02-03T00:09:58.455Z,29.50
2018-02-03T00:11:00.914Z,25.50
2018-02-03T00:12:03.410Z,31.62
2018-02-03T00:13:06.625Z,25.25
2018-02-03T00:14:09.922Z,22.95
2018-02-03T00:15:12.390Z,29.27
2018-02-03T00:16:14.849Z,29.95
2018-02-03T00:17:17.341Z,33.53
2018-02-03T00:18:20.586Z,26.83
2018-02-03T00:19:23.849Z,29.63
2018-02-03T00:20:26.312Z,29.73
2018-02-03T00:21:29.945Z,30.98
2018-02-03T00:22:32.444Z,25.00
2018-02-03T00:23:35.693Z,28.85
2018-02-03T00:24:38.949Z,28.42
2018-02-03T00:25:41.425Z,28.17
2018-02-03T00:26:43.883Z,28.95
2018-02-03T00:27:47.134Z,26.00
2018-02-03T00:28:49.705Z,26.85
2018-02-03T00:29:52.190Z,27.58
2018-02-03T00:30:54.677Z,28.90
2018-02-03T00:31:57.145Z,26.30
2018-02-03T00:32:59.613Z,30.20
2018-02-03T00:34:02.131Z,26.50
2018-02-03T00:35:05.389Z,26.70
2018-02-03T00:36:07.854Z,29.35
2018-02-03T00:37:10.334Z,25.77
2018-02-03T00:38:12.810Z,26.73
2018-02-03T00:39:15.319Z,23.87
2018-02-03T00:40:18.548Z,29.45
2018-02-03T00:41:21.765Z,27.83
2018-02-03T00:42:24.245Z,24.95
2018-02-03T00:43:26.718Z,24.33
2018-02-03T00:44:29.188Z,27.95
2018-02-03T00:45:31.660Z,25.10
2018-02-03T00:46:34.124Z,25.83
2018-02-03T00:47:37.336Z,25.48
2018-02-03T00:48:39.825Z,27.73
2018-02-03T00:49:42.293Z,25.65
2018-02-03T00:50:45.530Z,26.40
2018-02-03T00:51:48.090Z,25.55
2018-02-03T00:52:51.327Z,22.30
2018-02-03T00:53:54.557Z,24.10
2018-02-03T00:54:57.788Z,22.95
2018-02-03T00:56:00.248Z,24.80
2018-02-03T00:57:02.749Z,27.62
2018-02-03T00:58:05.986Z,28.52
2018-02-03T00:59:08.436Z,24.52
2018-02-03T01:00:10.901Z,25.10
2018-02-03T01:01:13.362Z,24.08
2018-02-03T01:02:16.675Z,22.75
2018-02-03T01:04:45.400Z,24.67
2018-02-03T01:05:48.618Z,27.80
2018-02-03T01:06:51.181Z,26.05
2018-02-03T01:07:53.645Z,27.25
2018-02-03T01:08:56.109Z,30.33
2018-02-03T01:09:59.361Z,29.37
2018-02-03T01:11:02.594Z,28.85
2018-02-03T01:12:05.057Z,32.30
2018-02-03T01:13:07.521Z,30.73
2018-02-03T01:14:09.990Z,29.65
2018-02-03T01:15:13.238Z,28.95
2018-02-03T01:16:16.453Z,33.92
2018-02-03T01:17:19.673Z,31.85
2018-02-03T01:18:22.145Z,28.35
2018-02-03T01:19:24.598Z,32.75
2018-02-03T01:20:27.205Z,30.62
2018-02-03T01:21:29.672Z,28.98
2018-02-03T01:22:32.129Z,27.25
2018-02-03T01:23:35.422Z,30.60
2018-02-03T01:24:37.890Z,31.23
2018-02-03T01:25:40.343Z,29.35
2018-02-03T01:26:42.826Z,31.23
2018-02-03T01:27:45.294Z,31.80
2018-02-03T01:28:47.784Z,33.50
2018-02-03T01:29:50.253Z,32.00
2018-02-03T01:30:52.735Z,31.30
2018-02-03T01:31:55.214Z,30.45
2018-02-03T01:32:57.669Z,26.80
2018-02-03T01:34:00.702Z,31.45
2018-02-03T01:35:03.933Z,29.15
2018-02-03T01:36:06.455Z,32.97
2018-02-03T01:37:08.949Z,32.88
2018-02-03T01:38:11.465Z,32.58
2018-02-03T01:39:13.936Z,30.70
2018-02-03T01:40:16.416Z,31.48
2018-02-03T01:41:18.955Z,33.35
2018-02-03T01:42:21.413Z,31.17
2018-02-03T01:43:23.888Z,31.77
2018-02-03T01:44:27.120Z,31.95
2018-02-03T01:45:30.367Z,31.40
2018-02-03T01:46:33.717Z,36.10
2018-02-03T01:47:48.141Z,33.45
2018-02-03T01:48:50.678Z,29.10
2018-02-03T01:49:53.151Z,31.12
2018-02-03T01:50:56.425Z,32.20
2018-02-03T01:51:58.936Z,32.35
2018-02-03T01:53:02.567Z,29.20
2018-02-03T01:54:05.807Z,34.80
2018-02-03T01:55:08.273Z,33.38
2018-02-03T01:56:10.753Z,33.15
2018-02-03T01:57:13.221Z,31.48
2018-02-03T01:58:15.697Z,33.90
2018-02-03T01:59:18.177Z,36.60
2018-02-03T02:00:20.709Z,31.27
2018-02-03T02:01:23.181Z,31.05
2018-02-03T02:02:26.417Z,33.45
2018-02-03T02:03:29.166Z,32.83
2018-02-03T02:04:32.395Z,31.10
2018-02-03T02:05:35.637Z,34.60
2018-02-03T02:06:38.117Z,29.05
2018-02-03T02:07:40.601Z,34.00
2018-02-03T02:08:43.842Z,32.40
2018-02-03T02:09:47.053Z,35.20
2018-02-03T02:10:51.042Z,34.75
2018-02-03T02:11:54.265Z,34.50
2018-02-03T02:12:56.781Z,33.40
2018-02-03T02:13:59.249Z,29.60
2018-02-03T02:15:02.471Z,30.35
2018-02-03T02:16:05.713Z,35.58
2018-02-03T02:17:08.173Z,33.50
2018-02-03T02:18:10.672Z,36.45
2018-02-03T02:19:13.893Z,34.88
2018-02-03T02:20:16.352Z,37.50
2018-02-03T02:21:19.564Z,33.58
2018-02-03T02:22:22.795Z,30.95
2018-02-03T02:23:25.366Z,34.13
2018-02-03T02:24:28.298Z,33.55
2018-02-03T02:25:30.811Z,33.05
2018-02-03T02:26:34.069Z,34.42
2018-02-03T02:27:36.527Z,34.83
2018-02-03T02:28:39.013Z,34.05
2018-02-03T02:29:41.485Z,33.47
2018-02-03T02:30:43.941Z,35.50
2018-02-03T02:31:47.174Z,32.40
2018-02-03T02:32:49.626Z,31.45
2018-02-03T02:33:52.178Z,36.67
2018-02-03T02:34:54.682Z,32.50
2018-02-03T02:35:57.175Z,35.25
2018-02-03T02:36:59.639Z,35.47
2018-02-03T02:38:02.106Z,35.55
2018-02-03T02:39:04.569Z,33.83
2018-02-03T02:40:07.797Z,33.72
2018-02-03T02:41:11.055Z,32.40
2018-02-03T02:42:14.285Z,36.28
2018-02-03T02:43:17.544Z,35.47
2018-02-03T02:44:20.784Z,33.30
2018-02-03T02:45:24.030Z,39.35
2018-02-03T02:46:26.993Z,39.25
2018-02-03T02:47:29.447Z,36.33
2018-02-03T02:48:32.021Z,31.65
2018-02-03T02:49:34.477Z,35.75
2018-02-03T02:50:36.936Z,36.22
2018-02-03T02:51:39.417Z,34.50
2018-02-03T02:52:41.907Z,40.15
2018-02-03T02:53:45.164Z,33.78
2018-02-03T02:54:47.621Z,33.40
2018-02-03T02:55:50.085Z,36.30
2018-02-03T02:56:53.342Z,33.00
2018-02-03T02:57:56.601Z,34.15
2018-02-03T02:58:59.126Z,36.75
2018-02-03T03:00:02.376Z,32.95
2018-02-03T03:01:04.897Z,35.47
2018-02-03T03:02:07.367Z,35.50
2018-02-03T03:03:09.850Z,35.10
2018-02-03T03:04:12.361Z,35.42
2018-02-03T03:05:14.821Z,34.00
2018-02-03T03:06:17.310Z,37.65
2018-02-03T03:07:20.559Z,37.35
2018-02-03T03:08:23.803Z,33.60
2018-02-03T03:09:26.274Z,38.05
2018-02-03T03:10:30.378Z,34.13
2018-02-03T03:11:34.169Z,34.45
2018-02-03T03:12:36.648Z,35.58
2018-02-03T03:13:39.909Z,33.50
2018-02-03T03:14:42.375Z,37.58
2018-02-03T03:15:44.885Z,37.40
2018-02-03T03:16:47.388Z,31.20
2018-02-03T03:17:49.833Z,34.05
2018-02-03T03:18:52.332Z,36.17
2018-02-03T03:19:54.857Z,31.77
2018-02-03T03:20:57.329Z,33.30
2018-02-03T03:22:00.575Z,34.47
2018-02-03T03:23:03.029Z,38.08
2018-02-03T03:24:06.270Z,37.25
2018-02-03T03:25:09.510Z,33.53
2018-02-03T03:26:12.766Z,35.13
2018-02-03T03:27:16.017Z,36.83
2018-02-03T03:28:18.474Z,35.78
2018-02-03T03:29:20.938Z,34.67
2018-02-03T03:30:24.210Z,36.42
2018-02-03T03:31:27.434Z,38.08
2018-02-03T03:32:30.791Z,33.97
2018-02-03T03:33:34.023Z,37.90
2018-02-03T03:34:37.327Z,39.40
2018-02-03T03:35:39.794Z,37.53
2018-02-03T03:36:43.068Z,33.85
2018-02-03T03:37:45.582Z,34.05
2018-02-03T03:38:48.103Z,32.67
2018-02-03T03:39:50.572Z,34.10
2018-02-03T03:40:53.033Z,36.05
2018-02-03T03:41:56.297Z,33.80
2018-02-03T03:42:58.830Z,40.00
2018-02-03T03:44:01.339Z,34.22
2018-02-03T03:45:04.622Z,36.17
2018-02-03T03:46:07.090Z,36.90
2018-02-03T03:47:10.327Z,35.55
2018-02-03T03:48:13.338Z,34.10
2018-02-03T03:49:15.918Z,35.55
2018-02-03T03:50:18.866Z,37.30
2018-02-03T03:51:21.346Z,35.42
2018-02-03T03:52:23.812Z,39.38
2018-02-03T03:53:26.327Z,35.65
2018-02-03T03:54:29.570Z,35.55
2018-02-03T03:55:32.065Z,37.20
2018-02-03T03:56:34.515Z,43.50
2018-02-03T03:57:37.736Z,36.90
2018-02-03T03:58:40.962Z,35.60
2018-02-03T03:59:43.425Z,37.58
2018-02-03T04:00:46.681Z,37.50
2018-02-03T04:01:49.142Z,35.40
2018-02-03T04:02:51.615Z,39.10
2018-02-03T04:03:54.839Z,40.47
2018-02-03T04:04:58.116Z,34.53
2018-02-03T04:06:00.617Z,38.50
2018-02-03T04:07:03.851Z,38.08
2018-02-03T04:08:07.073Z,41.22
2018-02-03T04:09:11.056Z,34.97
2018-02-03T04:10:14.315Z,35.17
2018-02-03T04:11:17.538Z,39.13
2018-02-03T04:12:20.771Z,37.42
2018-02-03T04:13:23.248Z,36.90
2018-02-03T04:14:25.732Z,38.55
2018-02-03T04:15:28.957Z,36.20
2018-02-03T04:16:31.412Z,35.78
2018-02-03T04:17:33.865Z,36.08
2018-02-03T04:18:36.337Z,37.38
2018-02-03T04:19:39.605Z,37.78
2018-02-03T04:20:42.833Z,37.25
2018-02-03T04:21:46.064Z,39.22
2018-02-03T04:22:48.532Z,39.58
2018-02-03T04:23:51.002Z,35.97
2018-02-03T04:24:53.474Z,41.03
2018-02-03T04:25:55.955Z,37.97
2018-02-03T04:26:58.405Z,37.30
2018-02-03T04:28:01.653Z,36.55
2018-02-03T04:29:04.885Z,42.53
2018-02-03T04:30:08.139Z,38.50
2018-02-03T04:31:11.370Z,39.35
2018-02-03T04:32:14.597Z,35.35
2018-02-03T04:33:17.078Z,41.35
2018-02-03T04:34:19.571Z,40.67
2018-02-03T04:35:22.047Z,35.28
2018-02-03T04:36:24.505Z,38.30
2018-02-03T04:37:26.964Z,41.30
2018-02-03T04:38:29.456Z,39.53
2018-02-03T04:39:32.679Z,34.42
2018-02-03T04:40:35.165Z,39.72
2018-02-03T04:41:37.667Z,40.45
2018-02-03T04:42:40.126Z,41.92
2018-02-03T04:43:42.621Z,38.70
2018-02-03T04:44:45.105Z,40.95
2018-02-03T04:45:47.552Z,38.80
2018-02-03T04:46:50.879Z,40.45
2018-02-03T04:47:53.370Z,43.80
2018-02-03T04:48:55.870Z,37.65
2018-02-03T04:49:58.385Z,36.08
2018-02-03T04:51:00.880Z,37.92
2018-02-03T04:52:03.390Z,41.25
2018-02-03T04:53:05.869Z,37.60
2018-02-03T04:54:08.337Z,42.30
2018-02-03T04:55:10.801Z,41.90
2018-02-03T04:56:14.033Z,37.47
2018-02-03T04:57:17.297Z,38.50
2018-02-03T04:58:19.756Z,39.83
2018-02-03T04:59:22.241Z,36.35
2018-02-03T05:00:24.703Z,35.38
2018-02-03T05:01:27.166Z,30.98
2018-02-03T05:02:29.766Z,30.85
2018-02-03T05:03:32.229Z,27.75
2018-02-03T05:04:35.463Z,31.70
2018-02-03T05:05:38.716Z,30.45
2018-02-03T05:06:41.969Z,30.23
2018-02-03T05:07:45.200Z,29.55
2018-02-03T05:08:48.412Z,31.08
2018-02-03T05:09:50.876Z,30.73
2018-02-03T05:10:54.113Z,31.10
2018-02-03T05:11:57.341Z,34.88
2018-02-03T05:13:00.568Z,34.53
2018-02-03T05:14:03.055Z,32.95
2018-02-03T05:15:05.557Z,33.92
2018-02-03T05:16:08.041Z,33.92
2018-02-03T05:17:12.013Z,36.70
2018-02-03T05:18:15.327Z,33.92
2018-02-03T05:19:17.777Z,37.58
2018-02-03T05:20:20.257Z,33.50
2018-02-03T05:21:22.709Z,40.80
2018-02-03T05:22:25.173Z,31.83
2018-02-03T05:23:28.430Z,34.00
2018-02-03T05:24:30.903Z,34.30
2018-02-03T05:25:33.384Z,35.88
2018-02-03T05:26:35.950Z,34.53
2018-02-03T05:27:38.438Z,36.22
2018-02-03T05:28:41.623Z,36.33
2018-02-03T05:29:44.109Z,35.88
2018-02-03T05:30:46.583Z,35.97
2018-02-03T05:31:49.042Z,36.70
2018-02-03T05:32:51.505Z,37.28
2018-02-03T05:33:53.971Z,36.33
2018-02-03T05:34:56.441Z,35.97
2018-02-03T05:35:58.905Z,40.00
2018-02-03T05:37:01.467Z,37.35
2018-02-03T05:38:04.688Z,33.80
2018-02-03T05:39:07.920Z,37.53
2018-02-03T05:40:10.373Z,36.90
2018-02-03T05:41:12.837Z,34.95
2018-02-03T05:42:15.325Z,35.13
2018-02-03T05:43:17.796Z,31.87
2018-02-03T05:44:23.677Z,32.65
2018-02-03T05:45:28.938Z,34.72
2018-02-03T05:46:31.420Z,31.83
2018-02-03T05:47:33.889Z,27.50
2018-02-03T05:48:36.380Z,31.67
2018-02-03T05:49:39.615Z,29.75
2018-02-03T05:50:42.847Z,29.70
2018-02-03T05:51:45.301Z,30.25
2018-02-03T05:52:48.567Z,30.08
2018-02-03T05:53:51.024Z,29.95
2018-02-03T05:54:53.495Z,26.23
2018-02-03T05:55:56.714Z,31.73
2018-02-03T05:56:59.182Z,30.88
2018-02-03T05:58:02.471Z,28.55
2018-02-03T05:59:04.947Z,26.92
2018-02-03T06:00:07.643Z,27.17
2018-02-03T06:01:10.869Z,29.73
2018-02-03T06:02:13.325Z,26.83
2018-02-03T06:03:16.596Z,29.73
2018-02-03T06:04:19.061Z,24.85
2018-02-03T06:05:21.585Z,28.70
2018-02-03T06:06:24.039Z,28.48
2018-02-03T06:07:26.537Z,29.20
2018-02-03T06:08:29.121Z,25.80
2018-02-03T06:09:31.610Z,28.52
2018-02-03T06:10:35.593Z,24.92
2018-02-03T06:11:38.817Z,27.02
2018-02-03T06:12:42.065Z,26.25
2018-02-03T06:13:45.289Z,26.45
2018-02-03T06:14:47.789Z,26.20
2018-02-03T06:15:50.274Z,25.42
2018-02-03T06:16:53.556Z,27.25
2018-02-03T06:17:57.484Z,25.12
2018-02-03T06:19:00.004Z,26.08
2018-02-03T06:20:03.257Z,28.60
2018-02-03T06:21:05.758Z,28.33
2018-02-03T06:22:08.994Z,27.42
2018-02-03T06:23:12.220Z,26.67
2018-02-03T06:24:14.701Z,24.40
2018-02-03T06:25:18.118Z,26.50
2018-02-03T06:26:21.745Z,27.23
2018-02-03T06:27:24.215Z,25.62
2018-02-03T06:28:26.695Z,28.73
2018-02-03T06:29:29.175Z,28.05
2018-02-03T06:30:31.642Z,25.88
2018-02-03T06:31:34.109Z,25.27
2018-02-03T06:32:36.673Z,27.87
2018-02-03T06:33:39.131Z,29.20
2018-02-03T06:34:42.372Z,28.17
2018-02-03T06:35:45.642Z,26.08
2018-02-03T06:36:48.118Z,25.77
2018-02-03T06:37:50.581Z,26.80
2018-02-03T06:38:53.793Z,28.85
2018-02-03T06:39:56.349Z,24.90
2018-02-03T06:40:59.033Z,25.92
2018-02-03T06:42:02.292Z,27.70
2018-02-03T06:43:04.980Z,28.55
2018-02-03T06:44:07.444Z,27.58
2018-02-03T06:45:10.005Z,26.12
2018-02-03T06:46:12.528Z,25.12
2018-02-03T06:47:15.031Z,30.88
2018-02-03T06:48:18.295Z,29.35
2018-02-03T06:49:20.790Z,31.05
2018-02-03T06:50:23.295Z,32.20
2018-02-03T06:51:25.777Z,32.53
2018-02-03T06:52:28.235Z,31.40
2018-02-03T06:53:31.166Z,28.95
2018-02-03T06:54:33.661Z,32.92
2018-02-03T06:55:36.137Z,32.03
2018-02-03T06:56:38.713Z,32.63
2018-02-03T06:57:41.946Z,34.03
2018-02-03T06:58:45.678Z,33.70
2018-02-03T06:59:48.138Z,30.33
2018-02-03T07:00:50.638Z,32.10
2018-02-03T07:01:53.905Z,31.23
2018-02-03T07:02:56.444Z,31.60
2018-02-03T07:03:58.911Z,32.58
2018-02-03T07:05:01.378Z,31.75
2018-02-03T07:06:03.870Z,32.28
2018-02-03T07:07:06.356Z,29.55
2018-02-03T07:08:08.886Z,30.98
2018-02-03T07:09:11.352Z,29.50
2018-02-03T07:10:14.333Z,31.27
2018-02-03T07:11:16.857Z,26.75
2018-02-03T07:12:19.354Z,28.75
2018-02-03T07:13:22.589Z,25.10
2018-02-03T07:14:25.862Z,26.95
2018-02-03T07:15:28.316Z,26.00
2018-02-03T07:16:30.781Z,27.67
2018-02-03T07:17:34.055Z,26.12
2018-02-03T07:18:36.518Z,23.67
2018-02-03T07:19:38.977Z,23.10
2018-02-03T07:20:42.226Z,23.90
2018-02-03T07:21:45.457Z,22.60
2018-02-03T07:22:48.677Z,24.52
2018-02-03T07:23:51.148Z,23.00
2018-02-03T07:24:53.621Z,21.90
2018-02-03T07:25:56.078Z,22.58
2018-02-03T07:26:59.365Z,19.35
2018-02-03T07:28:01.837Z,18.10
2018-02-03T07:29:05.093Z,20.60
2018-02-03T07:30:08.334Z,21.95
2018-02-03T07:31:11.583Z,17.50
2018-02-03T07:32:14.819Z,24.65
2018-02-03T07:33:18.091Z,24.12
2018-02-03T07:34:20.546Z,22.67
2018-02-03T07:35:23.113Z,23.90
2018-02-03T07:36:26.352Z,21.92
2018-02-03T07:37:29.610Z,24.95
2018-02-03T07:38:32.137Z,23.42
2018-02-03T07:39:34.608Z,22.15
2018-02-03T07:40:37.073Z,23.65
2018-02-03T07:41:40.325Z,26.00
2018-02-03T07:42:43.554Z,23.35
2018-02-03T07:43:46.896Z,21.73
2018-02-03T07:44:50.121Z,25.37
2018-02-03T07:45:52.598Z,21.37
2018-02-03T07:46:55.061Z,22.10
2018-02-03T07:47:57.526Z,22.37
2018-02-03T07:49:00.057Z,20.08
2018-02-03T07:50:02.523Z,19.67
2018-02-03T07:51:05.053Z,22.15
2018-02-03T07:52:07.514Z,18.77
2018-02-03T07:53:10.754Z,23.92
2018-02-03T07:54:14.004Z,21.92
2018-02-03T07:55:17.258Z,26.48
2018-02-03T07:56:19.745Z,24.90
2018-02-03T07:57:22.265Z,20.25
2018-02-03T07:58:24.692Z,22.40
2018-02-03T07:59:27.164Z,25.58
2018-02-03T08:00:29.682Z,22.08
2018-02-03T08:01:32.165Z,26.45
2018-02-03T08:02:34.636Z,22.23
2018-02-03T08:03:37.109Z,22.30
2018-02-03T08:04:39.577Z,24.12
2018-02-03T08:05:42.065Z,25.95
2018-02-03T08:06:44.661Z,24.70
2018-02-03T08:07:47.165Z,24.60
2018-02-03T08:08:49.690Z,22.13
2018-02-03T08:09:52.148Z,26.95
2018-02-03T08:10:54.605Z,22.95
2018-02-03T08:11:57.850Z,28.62
2018-02-03T08:13:00.351Z,23.85
2018-02-03T08:14:02.821Z,25.02
2018-02-03T08:15:06.069Z,23.73
2018-02-03T08:16:08.593Z,25.10
2018-02-03T08:17:11.054Z,27.20
2018-02-03T08:18:13.572Z,28.77
2018-02-03T08:19:16.059Z,27.13
2018-02-03T08:20:19.293Z,24.77
2018-02-03T08:21:22.610Z,32.00
2018-02-03T08:22:25.083Z,23.55
2018-02-03T08:23:27.558Z,23.98
2018-02-03T08:24:30.079Z,28.00
2018-02-03T08:25:32.545Z,28.67
2018-02-03T08:26:35.791Z,30.45
2018-02-03T08:27:39.045Z,21.85
2018-02-03T08:28:41.569Z,24.60
2018-02-03T08:29:44.090Z,25.75
2018-02-03T08:30:46.574Z,22.92
2018-02-03T08:31:49.044Z,22.52
2018-02-03T08:32:51.511Z,24.45
2018-02-03T08:33:53.999Z,24.65
2018-02-03T08:34:56.521Z,23.92
2018-02-03T08:35:58.997Z,25.20
2018-02-03T08:37:02.965Z,24.85
2018-02-03T08:38:05.441Z,22.42
2018-02-03T08:39:07.949Z,23.85
2018-02-03T08:40:10.620Z,23.73
2018-02-03T08:41:13.065Z,26.62
2018-02-03T08:42:15.552Z,25.10
2018-02-03T08:43:18.009Z,23.98
2018-02-03T08:44:20.489Z,24.50
2018-02-03T08:45:22.953Z,23.27
2018-02-03T08:46:25.447Z,25.17
2018-02-03T08:47:27.948Z,22.20
2018-02-03T08:48:31.172Z,21.45
2018-02-03T08:49:33.637Z,23.23
2018-02-03T08:50:37.308Z,21.00
2018-02-03T08:51:39.826Z,22.52
2018-02-03T08:52:42.365Z,20.20
2018-02-03T08:53:44.956Z,21.87
2018-02-03T08:54:47.424Z,22.45
2018-02-03T08:55:49.881Z,17.70
2018-02-03T08:56:53.654Z,20.75
2018-02-03T08:57:56.147Z,19.15
2018-02-03T08:58:58.609Z,20.35
2018-02-03T09:00:01.092Z,18.05
2018-02-03T09:01:03.579Z,18.23
2018-02-03T09:02:06.159Z,17.08
2018-02-03T09:03:09.396Z,19.15
2018-02-03T09:04:12.627Z,18.15
2018-02-03T09:05:15.108Z,17.80
2018-02-03T09:06:17.598Z,19.37
2018-02-03T09:07:20.824Z,17.42
2018-02-03T09:08:23.278Z,17.45
2018-02-03T09:09:26.502Z,15.98
2018-02-03T09:10:29.725Z,15.38
2018-02-03T09:11:32.220Z,14.10
2018-02-03T09:12:34.681Z,11.65
2018-02-03T09:13:37.141Z,11.20
2018-02-03T09:14:39.628Z,10.75
2018-02-03T09:15:42.138Z,10.63
2018-02-03T09:16:44.616Z,10.68
2018-02-03T09:17:47.181Z,7.75
2018-02-03T09:18:49.645Z,10.77
2018-02-03T09:19:52.902Z,8.50
2018-02-03T09:20:56.133Z,9.07
2018-02-03T09:21:59.369Z,9.80
2018-02-03T09:23:02.605Z,7.53
2018-02-03T09:24:05.093Z,6.93
2018-02-03T09:25:07.579Z,9.02
2018-02-03T09:26:10.810Z,9.40
2018-02-03T09:27:14.028Z,7.95
2018-02-03T09:28:16.519Z,8.77
2018-02-03T09:29:18.981Z,8.93
2018-02-03T09:30:21.541Z,9.98
2018-02-03T09:31:24.040Z,12.20
2018-02-03T09:32:26.503Z,11.50
2018-02-03T09:33:28.998Z,10.68
2018-02-03T09:34:32.222Z,12.30
2018-02-03T09:35:34.682Z,12.77
2018-02-03T09:36:37.256Z,13.13
2018-02-03T09:37:40.817Z,11.70
2018-02-03T09:38:43.265Z,13.45
2018-02-03T09:39:46.498Z,13.98
2018-02-03T09:40:49.769Z,10.63
2018-02-03T09:41:52.222Z,16.12
2018-02-03T09:42:54.766Z,12.60
2018-02-03T09:43:57.233Z,11.48
2018-02-03T09:45:00.506Z,18.48
2018-02-03T09:46:03.073Z,15.75
2018-02-03T09:47:05.521Z,12.20
2018-02-03T09:48:08.879Z,9.57
2018-02-03T09:49:12.101Z,11.48
2018-02-03T09:50:14.575Z,11.48
2018-02-03T09:51:17.030Z,12.37
2018-02-03T09:52:19.497Z,12.07
2018-02-03T09:53:22.009Z,11.43
2018-02-03T09:54:25.241Z,13.45
2018-02-03T09:55:27.701Z,10.27
2018-02-03T09:56:30.173Z,7.80
2018-02-03T09:57:34.157Z,9.05
2018-02-03T09:58:37.440Z,9.60
2018-02-03T09:59:39.925Z,10.23
2018-02-03T10:00:43.241Z,8.18
2018-02-03T10:01:45.754Z,8.80
2018-02-03T10:02:48.340Z,8.00
2018-02-03T10:03:51.673Z,11.05
2018-02-03T10:04:54.903Z,9.38
2018-02-03T10:05:57.403Z,10.10
2018-02-03T10:06:59.862Z,7.85
2018-02-03T10:08:03.084Z,8.40
2018-02-03T10:09:05.544Z,9.07
2018-02-03T10:10:08.021Z,9.55
2018-02-03T10:11:12.028Z,10.63
2018-02-03T10:12:14.486Z,9.00
2018-02-03T10:13:16.976Z,10.40
2018-02-03T10:14:20.197Z,9.77
2018-02-03T10:15:23.460Z,10.50
2018-02-03T10:16:26.708Z,10.27
2018-02-03T10:17:29.190Z,9.93
2018-02-03T10:18:31.678Z,10.20
2018-02-03T10:19:34.135Z,8.60
2018-02-03T10:20:36.703Z,8.85
2018-02-03T10:21:39.145Z,8.68
2018-02-03T10:22:41.646Z,8.82
2018-02-03T10:23:44.931Z,7.97
2018-02-03T10:24:48.100Z,8.70
2018-02-03T10:25:51.346Z,8.90
2018-02-03T10:26:53.812Z,13.00
2018-02-03T10:27:56.336Z,10.30
2018-02-03T10:28:58.870Z,8.10
2018-02-03T10:30:01.351Z,16.37
2018-02-03T10:31:03.849Z,9.00
2018-02-03T10:32:06.381Z,9.05
2018-02-03T10:33:08.823Z,8.48
2018-02-03T10:34:11.343Z,8.13
2018-02-03T10:35:14.625Z,7.70
2018-02-03T10:36:17.436Z,8.02
2018-02-03T10:37:20.317Z,10.52
2018-02-03T10:38:22.841Z,8.07
2018-02-03T10:39:25.348Z,8.07
2018-02-03T10:40:27.799Z,9.02
2018-02-03T10:41:31.208Z,7.40
2018-02-03T10:42:34.429Z,9.15
2018-02-03T10:43:37.226Z,8.50
2018-02-03T10:44:39.700Z,8.63
2018-02-03T10:45:42.960Z,8.77
2018-02-03T10:46:45.461Z,8.02
2018-02-03T10:47:48.746Z,6.72
2018-02-03T10:48:51.378Z,9.38
2018-02-03T10:49:54.074Z,7.37
2018-02-03T10:50:57.425Z,8.35
2018-02-03T10:51:59.930Z,7.00
2018-02-03T10:53:03.172Z,7.90
2018-02-03T10:54:05.670Z,10.38
2018-02-03T10:55:08.122Z,7.30
2018-02-03T10:56:11.417Z,8.10
2018-02-03T10:57:13.886Z,9.57
2018-02-03T10:58:17.173Z,8.60
2018-02-03T10:59:19.647Z,9.07
2018-02-03T11:00:22.115Z,8.93
2018-02-03T11:01:24.594Z,10.32
2018-02-03T11:02:27.093Z,8.93
2018-02-03T11:03:29.603Z,8.93
2018-02-03T11:04:32.066Z,15.00
2018-02-03T11:05:35.303Z,11.00
2018-02-03T11:06:37.873Z,13.68
2018-02-03T11:07:40.414Z,9.30
2018-02-03T11:08:42.882Z,11.25
2018-02-03T11:09:45.338Z,10.02
2018-02-03T11:10:48.573Z,11.65
2018-02-03T11:11:51.830Z,11.40
2018-02-03T11:12:55.076Z,11.57
2018-02-03T11:13:57.534Z,12.70
2018-02-03T11:15:00.063Z,12.50
2018-02-03T11:16:02.528Z,10.95
2018-02-03T11:17:05.018Z,13.38
2018-02-03T11:18:07.479Z,10.98
2018-02-03T11:19:10.757Z,12.20
2018-02-03T11:20:13.291Z,13.80
2018-02-03T11:21:15.794Z,12.85
2018-02-03T11:22:18.283Z,15.10
2018-02-03T11:23:20.758Z,13.62
2018-02-03T11:24:23.258Z,15.10
2018-02-03T11:25:26.581Z,13.73
2018-02-03T11:26:29.914Z,12.37
2018-02-03T11:27:32.485Z,12.80
2018-02-03T11:28:35.553Z,13.48
2018-02-03T11:29:38.005Z,13.18
2018-02-03T11:30:40.501Z,14.60
2018-02-03T11:31:42.966Z,13.23
2018-02-03T11:32:46.198Z,14.75
2018-02-03T11:33:48.687Z,15.85
2018-02-03T11:34:51.157Z,13.05
2018-02-03T11:35:53.669Z,13.55
2018-02-03T11:36:56.143Z,13.52
2018-02-03T11:37:58.620Z,13.23
2018-02-03T11:39:01.099Z,14.20
2018-02-03T11:40:03.573Z,13.50
2018-02-03T11:41:07.566Z,15.38
2018-02-03T11:42:10.793Z,14.32
2018-02-03T11:43:14.037Z,15.15
2018-02-03T11:44:17.267Z,18.67
2018-02-03T11:45:21.420Z,14.80
2018-02-03T11:46:24.667Z,14.23
2018-02-03T11:47:27.131Z,14.65
2018-02-03T11:48:29.596Z,16.37
2018-02-03T11:49:32.193Z,15.02
2018-02-03T11:50:34.891Z,14.25
2018-02-03T11:51:37.441Z,12.20
2018-02-03T11:52:40.693Z,12.30
2018-02-03T11:53:43.769Z,13.23
2018-02-03T11:54:46.237Z,12.52
2018-02-03T11:55:49.517Z,11.85
2018-02-03T11:56:51.993Z,11.88
2018-02-03T11:57:55.266Z,16.80
2018-02-03T11:58:57.837Z,11.98
2018-02-03T12:00:00.305Z,12.45
2018-02-03T12:01:02.803Z,11.52
2018-02-03T12:02:05.363Z,13.55
2018-02-03T12:03:07.838Z,12.65
2018-02-03T12:04:10.299Z,13.62
2018-02-03T12:05:13.565Z,15.68
2018-02-03T12:06:16.065Z,17.25
2018-02-03T12:07:19.393Z,18.92
2018-02-03T12:08:22.674Z,17.58
2018-02-03T12:09:25.141Z,17.20
2018-02-03T12:10:27.604Z,18.77
2018-02-03T12:11:30.953Z,18.77
2018-02-03T12:12:34.201Z,18.60
2018-02-03T12:13:36.654Z,19.35
2018-02-03T12:14:39.119Z,19.90
2018-02-03T12:15:41.581Z,21.65
2018-02-03T12:16:45.371Z,19.87
2018-02-03T12:17:47.874Z,19.00
2018-02-03T12:18:50.387Z,18.35
2018-02-03T12:19:53.689Z,16.45
2018-02-03T12:20:56.267Z,18.92
2018-02-03T12:21:58.793Z,17.30
2018-02-03T12:23:01.288Z,18.75
2018-02-03T12:24:04.616Z,18.10
2018-02-03T12:25:07.142Z,17.12
2018-02-03T12:26:09.623Z,22.42
2018-02-03T12:27:12.127Z,20.45
2018-02-03T12:28:14.621Z,20.52
2018-02-03T12:29:17.157Z,19.35
2018-02-03T12:30:19.733Z,18.85
2018-02-03T12:31:22.203Z,14.38
2018-02-03T12:32:25.439Z,16.02
2018-02-03T12:33:27.925Z,15.65
2018-02-03T12:34:30.398Z,16.33
2018-02-03T12:35:33.621Z,17.20
2018-02-03T12:36:37.618Z,14.25
2018-02-03T12:37:40.940Z,20.67
2018-02-03T12:38:43.533Z,16.80
2018-02-03T12:39:46.079Z,15.40
2018-02-03T12:40:48.574Z,16.85
2018-02-03T12:41:51.110Z,17.65
2018-02-03T12:42:53.649Z,16.42
2018-02-03T12:43:56.121Z,17.87
2018-02-03T12:44:58.622Z,16.75
2018-02-03T12:46:01.845Z,15.63
2018-02-03T12:47:05.102Z,18.90
2018-02-03T12:48:08.397Z,17.80
2018-02-03T12:49:11.636Z,18.02
2018-02-03T12:50:14.108Z,16.83
2018-02-03T12:51:16.715Z,15.75
2018-02-03T12:52:19.263Z,15.32
2018-02-03T12:53:21.747Z,13.48
2018-02-03T12:54:24.371Z,15.80
2018-02-03T12:55:27.245Z,17.05
2018-02-03T12:56:29.892Z,18.25
2018-02-03T12:57:33.309Z,15.70
2018-02-03T12:58:36.480Z,15.77
2018-02-03T12:59:39.753Z,16.40
2018-02-03T13:00:42.434Z,15.60
2018-02-03T13:01:44.953Z,17.90
2018-02-03T13:02:49.623Z,16.65
2018-02-03T13:03:52.115Z,16.02
2018-02-03T13:04:54.628Z,17.77
2018-02-03T13:05:57.120Z,16.67
2018-02-03T13:07:00.805Z,19.17
2018-02-03T13:08:03.277Z,21.10
2018-02-03T13:09:05.786Z,19.62
2018-02-03T13:10:08.309Z,19.85
2018-02-03T13:11:10.794Z,18.92
2018-02-03T13:12:13.286Z,19.52
2018-02-03T13:13:15.766Z,22.40
2018-02-03T13:14:18.265Z,20.37
2018-02-03T13:15:21.525Z,23.27
2018-02-03T13:16:23.993Z,21.62
2018-02-03T13:17:26.463Z,20.45
2018-02-03T13:18:28.947Z,21.30
2018-02-03T13:19:31.434Z,20.40
2018-02-03T13:20:33.938Z,22.13
2018-02-03T13:21:36.438Z,21.83
2018-02-03T13:22:39.082Z,19.08
2018-02-03T13:23:41.664Z,20.67
2018-02-03T13:24:44.207Z,22.30
2018-02-03T13:25:46.703Z,20.88
2018-02-03T13:26:49.199Z,17.05
2018-02-03T13:27:51.736Z,18.60
2018-02-03T13:28:54.247Z,20.60
2018-02-03T13:29:56.786Z,21.90
2018-02-03T13:32:09.757Z,23.27
2018-02-03T13:33:12.250Z,18.85